RKNN/KAG METAR and TAF weather

Enter ICAO airport designator
Station Type Date Time Source
RKNN METAR 2021/07/27 00:56 UTC NOAA

RKNN 270056Z 05006KT 9000 BR FEW013 SCT030 29/25 A2969


Station Type Date Time Source
RKNN Decoded METAR 2021/07/27 00:56 UTC NOAA

Kangnung Ab, Korea, South (RKNN) 37-45N 128-57E 6M
Jul 26, 2021 - 08:56 PM EDT / 2021.07.27 0056 UTC
Wind: from the NE (050 degrees) at 7 MPH (6 KT):0
Visibility: 5 mile(s):0
Sky conditions: partly cloudy
Weather: mist
Temperature: 84 F (29 C)
Dew Point: 77 F (25 C)
Relative Humidity: 79%
Pressure (altimeter): 29.69 in. Hg (1005 hPa)
ob: RKNN 270056Z 05006KT 9000 BR FEW013 SCT030 29/25 A2969
cycle: 1

Station Type Date Time Source
RKNN TAF 2013/10/14 20:56 UTC NOAA

TAF
AMD RKNN 142045Z 1420/1524 06006G16KT 4800 -RA BR SCT010 BKN020
BECMG 1423/1424 06006G16KT 3200 -RA BR BKN010 OVC020
BECMG 1511/1512 36010KT 4800 -RA BR BKN025 TX16/1421Z TN07/1520Z

Example: see airport list